sensor_id;sensor_type;location;lat;lon;timestamp;temperature;humidity
8662;DHT22;29684;47.722;9.388;2023-03-19T00:00:21;9.20;99.90
8662;DHT22;29684;47.722;9.388;2023-03-19T00:03:05;9.30;99.90
8662;DHT22;29684;47.722;9.388;2023-03-19T00:05:51;9.20;99.90
8662;DHT22;29684;47.722;9.388;2023-03-19T00:08:36;9.10;99.90
8662;DHT22;29684;47.722;9.388;2023-03-19T00:11:20;9.00;99.90
8662;DHT22;29684;47.722;9.388;2023-03-19T00:14:04;9.30;99.90
8662;DHT22;29684;47.722;9.388;2023-03-19T00:16:49;9.20;99.90
8662;DHT22;29684;47.722;9.388;2023-03-19T00:19:34;9.10;99.90
8662;DHT22;29684;47.722;9.388;2023-03-19T00:22:17;9.30;99.90
8662;DHT22;29684;47.722;9.388;2023-03-19T00:25:02;9.00;99.90
8662;DHT22;29684;47.722;9.388;2023-03-19T00:27:46;9.10;99.90
8662;DHT22;29684;47.722;9.388;2023-03-19T00:30:30;9.10;99.90
8662;DHT22;29684;47.722;9.388;2023-03-19T00:33:14;9.20;99.90
8662;DHT22;29684;47.722;9.388;2023-03-19T00:35:58;9.20;99.90
8662;DHT22;29684;47.722;9.388;2023-03-19T00:38:44;9.10;99.90
8662;DHT22;29684;47.722;9.388;2023-03-19T00:41:29;9.10;99.90
8662;DHT22;29684;47.722;9.388;2023-03-19T00:44:13;9.10;99.90
8662;DHT22;29684;47.722;9.388;2023-03-19T00:46:57;9.10;99.90
8662;DHT22;29684;47.722;9.388;2023-03-19T00:49:41;9.30;99.90
8662;DHT22;29684;47.722;9.388;2023-03-19T00:52:25;9.10;99.90
8662;DHT22;29684;47.722;9.388;2023-03-19T00:55:09;9.20;99.90
8662;DHT22;29684;47.722;9.388;2023-03-19T00:57:53;9.10;99.90
8662;DHT22;29684;47.722;9.388;2023-03-19T01:00:38;9.10;99.90
8662;DHT22;29684;47.722;9.388;2023-03-19T01:03:23;9.20;99.90
8662;DHT22;29684;47.722;9.388;2023-03-19T01:06:07;9.20;99.90
8662;DHT22;29684;47.722;9.388;2023-03-19T01:08:51;9.20;99.90
8662;DHT22;29684;47.722;9.388;2023-03-19T01:11:35;9.30;99.90
8662;DHT22;29684;47.722;9.388;2023-03-19T01:14:20;9.30;99.90
8662;DHT22;29684;47.722;9.388;2023-03-19T01:17:05;9.40;99.90
8662;DHT22;29684;47.722;9.388;2023-03-19T01:19:49;9.40;99.90
8662;DHT22;29684;47.722;9.388;2023-03-19T01:22:38;9.40;99.90
8662;DHT22;29684;47.722;9.388;2023-03-19T01:25:23;9.20;99.90
8662;DHT22;29684;47.722;9.388;2023-03-19T01:28:07;9.40;99.90
8662;DHT22;29684;47.722;9.388;2023-03-19T01:30:51;9.50;99.90
8662;DHT22;29684;47.722;9.388;2023-03-19T01:33:35;9.50;99.90
8662;DHT22;29684;47.722;9.388;2023-03-19T01:36:20;9.40;99.90
8662;DHT22;29684;47.722;9.388;2023-03-19T01:39:05;9.40;99.90
8662;DHT22;29684;47.722;9.388;2023-03-19T01:41:49;9.40;99.90
8662;DHT22;29684;47.722;9.388;2023-03-19T01:44:35;9.70;99.90
8662;DHT22;29684;47.722;9.388;2023-03-19T01:50:04;9.60;99.90
8662;DHT22;29684;47.722;9.388;2023-03-19T01:52:49;9.50;99.90
8662;DHT22;29684;47.722;9.388;2023-03-19T01:55:33;9.50;99.90
8662;DHT22;29684;47.722;9.388;2023-03-19T01:58:17;9.50;99.90
8662;DHT22;29684;47.722;9.388;2023-03-19T02:01:02;9.50;99.90
8662;DHT22;29684;47.722;9.388;2023-03-19T02:03:48;9.60;99.90
8662;DHT22;29684;47.722;9.388;2023-03-19T02:06:33;9.80;99.90
8662;DHT22;29684;47.722;9.388;2023-03-19T02:09:18;9.90;99.90
8662;DHT22;29684;47.722;9.388;2023-03-19T02:12:03;10.10;99.90
8662;DHT22;29684;47.722;9.388;2023-03-19T02:14:48;10.00;99.90
8662;DHT22;29684;47.722;9.388;2023-03-19T02:17:32;9.90;99.90
8662;DHT22;29684;47.722;9.388;2023-03-19T02:20:24;9.90;99.90
8662;DHT22;29684;47.722;9.388;2023-03-19T02:23:36;9.90;99.90
8662;DHT22;29684;47.722;9.388;2023-03-19T02:26:24;10.10;99.90
8662;DHT22;29684;47.722;9.388;2023-03-19T02:29:09;10.20;99.90
8662;DHT22;29684;47.722;9.388;2023-03-19T02:31:53;10.10;99.90
8662;DHT22;29684;47.722;9.388;2023-03-19T02:34:41;10.30;99.90
8662;DHT22;29684;47.722;9.388;2023-03-19T02:37:27;10.40;99.90
8662;DHT22;29684;47.722;9.388;2023-03-19T02:40:21;10.40;99.90
8662;DHT22;29684;47.722;9.388;2023-03-19T02:43:06;10.40;99.90
8662;DHT22;29684;47.722;9.388;2023-03-19T02:45:51;10.40;99.90
8662;DHT22;29684;47.722;9.388;2023-03-19T02:48:36;10.30;99.90
8662;DHT22;29684;47.722;9.388;2023-03-19T02:51:21;10.30;99.90
8662;DHT22;29684;47.722;9.388;2023-03-19T02:54:07;10.30;99.90
8662;DHT22;29684;47.722;9.388;2023-03-19T02:56:51;10.30;99.90
8662;DHT22;29684;47.722;9.388;2023-03-19T02:59:35;10.30;99.90
8662;DHT22;29684;47.722;9.388;2023-03-19T03:02:20;10.20;99.90
8662;DHT22;29684;47.722;9.388;2023-03-19T03:05:05;10.40;99.90
8662;DHT22;29684;47.722;9.388;2023-03-19T03:07:49;10.30;99.90
8662;DHT22;29684;47.722;9.388;2023-03-19T03:10:33;10.40;99.90
8662;DHT22;29684;47.722;9.388;2023-03-19T03:13:18;10.20;99.90
8662;DHT22;29684;47.722;9.388;2023-03-19T03:16:02;10.30;99.90
8662;DHT22;29684;47.722;9.388;2023-03-19T03:18:47;10.10;99.90
8662;DHT22;29684;47.722;9.388;2023-03-19T03:21:31;10.00;99.90
8662;DHT22;29684;47.722;9.388;2023-03-19T03:24:16;10.00;99.90
8662;DHT22;29684;47.722;9.388;2023-03-19T03:27:01;9.90;99.90
8662;DHT22;29684;47.722;9.388;2023-03-19T03:29:45;9.90;99.90
8662;DHT22;29684;47.722;9.388;2023-03-19T03:32:30;9.90;99.90
8662;DHT22;29684;47.722;9.388;2023-03-19T03:35:14;9.80;99.90
8662;DHT22;29684;47.722;9.388;2023-03-19T03:38:05;9.80;99.90
8662;DHT22;29684;47.722;9.388;2023-03-19T03:40:50;9.80;99.90
8662;DHT22;29684;47.722;9.388;2023-03-19T03:43:37;9.80;99.90
8662;DHT22;29684;47.722;9.388;2023-03-19T03:46:22;10.00;99.90
8662;DHT22;29684;47.722;9.388;2023-03-19T03:49:07;9.90;99.90
8662;DHT22;29684;47.722;9.388;2023-03-19T03:51:51;10.10;99.90
8662;DHT22;29684;47.722;9.388;2023-03-19T03:54:35;9.90;99.90
8662;DHT22;29684;47.722;9.388;2023-03-19T03:57:20;9.90;99.90
8662;DHT22;29684;47.722;9.388;2023-03-19T04:00:04;10.00;99.90
8662;DHT22;29684;47.722;9.388;2023-03-19T04:02:49;10.00;99.90
8662;DHT22;29684;47.722;9.388;2023-03-19T04:05:33;9.90;99.90
8662;DHT22;29684;47.722;9.388;2023-03-19T04:08:18;10.00;99.90
8662;DHT22;29684;47.722;9.388;2023-03-19T04:11:05;9.80;99.90
8662;DHT22;29684;47.722;9.388;2023-03-19T04:13:50;9.80;99.90
8662;DHT22;29684;47.722;9.388;2023-03-19T04:16:35;9.90;99.90
8662;DHT22;29684;47.722;9.388;2023-03-19T04:19:19;10.00;99.90
8662;DHT22;29684;47.722;9.388;2023-03-19T04:22:03;10.00;99.90
8662;DHT22;29684;47.722;9.388;2023-03-19T04:24:47;9.90;99.90
8662;DHT22;29684;47.722;9.388;2023-03-19T04:27:32;9.90;99.90
8662;DHT22;29684;47.722;9.388;2023-03-19T04:30:17;10.00;99.90
8662;DHT22;29684;47.722;9.388;2023-03-19T04:33:02;9.90;99.90
8662;DHT22;29684;47.722;9.388;2023-03-19T04:35:47;9.90;99.90
8662;DHT22;29684;47.722;9.388;2023-03-19T04:38:31;9.90;99.90
8662;DHT22;29684;47.722;9.388;2023-03-19T04:41:15;9.80;99.90
8662;DHT22;29684;47.722;9.388;2023-03-19T04:44:00;9.70;99.90
8662;DHT22;29684;47.722;9.388;2023-03-19T04:46:44;9.70;99.90
8662;DHT22;29684;47.722;9.388;2023-03-19T04:49:29;9.70;99.90
8662;DHT22;29684;47.722;9.388;2023-03-19T04:52:14;9.60;99.90
8662;DHT22;29684;47.722;9.388;2023-03-19T04:54:58;9.60;99.90
8662;DHT22;29684;47.722;9.388;2023-03-19T04:57:42;9.70;99.90
8662;DHT22;29684;47.722;9.388;2023-03-19T05:00:26;9.70;99.90
8662;DHT22;29684;47.722;9.388;2023-03-19T05:03:11;9.80;99.90
8662;DHT22;29684;47.722;9.388;2023-03-19T05:05:55;9.80;99.90
8662;DHT22;29684;47.722;9.388;2023-03-19T05:08:39;9.80;99.90
8662;DHT22;29684;47.722;9.388;2023-03-19T05:11:24;9.70;99.90
8662;DHT22;29684;47.722;9.388;2023-03-19T05:14:08;9.60;99.90
8662;DHT22;29684;47.722;9.388;2023-03-19T05:16:52;9.60;99.90
8662;DHT22;29684;47.722;9.388;2023-03-19T05:19:37;9.30;99.90
8662;DHT22;29684;47.722;9.388;2023-03-19T05:22:22;9.20;99.90
8662;DHT22;29684;47.722;9.388;2023-03-19T05:25:07;9.20;99.90
8662;DHT22;29684;47.722;9.388;2023-03-19T05:27:51;9.10;99.90
8662;DHT22;29684;47.722;9.388;2023-03-19T05:30:35;9.00;99.90
8662;DHT22;29684;47.722;9.388;2023-03-19T05:33:20;9.10;99.90
8662;DHT22;29684;47.722;9.388;2023-03-19T05:36:05;9.10;99.90
8662;DHT22;29684;47.722;9.388;2023-03-19T05:38:50;9.00;99.90
8662;DHT22;29684;47.722;9.388;2023-03-19T05:41:34;9.00;99.90
8662;DHT22;29684;47.722;9.388;2023-03-19T05:44:19;9.30;99.90
8662;DHT22;29684;47.722;9.388;2023-03-19T05:47:04;9.20;99.90
8662;DHT22;29684;47.722;9.388;2023-03-19T05:49:49;9.30;99.90
8662;DHT22;29684;47.722;9.388;2023-03-19T05:52:33;9.40;99.90
8662;DHT22;29684;47.722;9.388;2023-03-19T05:55:18;9.50;99.90
8662;DHT22;29684;47.722;9.388;2023-03-19T05:58:02;9.60;99.90
8662;DHT22;29684;47.722;9.388;2023-03-19T06:00:47;9.30;99.90
8662;DHT22;29684;47.722;9.388;2023-03-19T06:03:31;9.20;99.90
8662;DHT22;29684;47.722;9.388;2023-03-19T06:06:15;9.10;99.90
8662;DHT22;29684;47.722;9.388;2023-03-19T06:09:00;9.00;99.90
8662;DHT22;29684;47.722;9.388;2023-03-19T06:11:45;9.00;99.90
8662;DHT22;29684;47.722;9.388;2023-03-19T06:14:29;9.10;99.90
8662;DHT22;29684;47.722;9.388;2023-03-19T06:17:13;9.00;99.90
8662;DHT22;29684;47.722;9.388;2023-03-19T06:19:57;9.20;99.90
8662;DHT22;29684;47.722;9.388;2023-03-19T06:22:41;9.30;99.90
8662;DHT22;29684;47.722;9.388;2023-03-19T06:25:26;9.50;99.90
8662;DHT22;29684;47.722;9.388;2023-03-19T06:28:10;9.70;99.90
8662;DHT22;29684;47.722;9.388;2023-03-19T06:30:55;9.90;99.90
8662;DHT22;29684;47.722;9.388;2023-03-19T06:33:40;9.90;99.90
8662;DHT22;29684;47.722;9.388;2023-03-19T06:36:24;10.10;99.90
8662;DHT22;29684;47.722;9.388;2023-03-19T06:39:09;10.10;99.90
8662;DHT22;29684;47.722;9.388;2023-03-19T06:41:53;10.20;99.90
8662;DHT22;29684;47.722;9.388;2023-03-19T06:44:38;10.40;99.90
8662;DHT22;29684;47.722;9.388;2023-03-19T06:47:22;10.40;99.90
8662;DHT22;29684;47.722;9.388;2023-03-19T06:50:06;10.50;99.90
8662;DHT22;29684;47.722;9.388;2023-03-19T06:52:50;10.60;99.90
8662;DHT22;29684;47.722;9.388;2023-03-19T06:55:35;10.70;99.90
8662;DHT22;29684;47.722;9.388;2023-03-19T06:58:20;10.80;99.90
8662;DHT22;29684;47.722;9.388;2023-03-19T07:01:05;11.00;99.90
8662;DHT22;29684;47.722;9.388;2023-03-19T07:03:49;10.80;99.90
8662;DHT22;29684;47.722;9.388;2023-03-19T07:06:33;10.60;99.90
8662;DHT22;29684;47.722;9.388;2023-03-19T07:09:17;10.50;99.90
8662;DHT22;29684;47.722;9.388;2023-03-19T07:12:02;10.40;99.90
8662;DHT22;29684;47.722;9.388;2023-03-19T07:14:46;10.30;99.90
8662;DHT22;29684;47.722;9.388;2023-03-19T07:17:30;10.30;99.90
8662;DHT22;29684;47.722;9.388;2023-03-19T07:20:15;10.20;99.90
8662;DHT22;29684;47.722;9.388;2023-03-19T07:22:59;10.10;99.90
8662;DHT22;29684;47.722;9.388;2023-03-19T07:25:44;10.20;99.90
8662;DHT22;29684;47.722;9.388;2023-03-19T07:28:30;10.30;99.90
8662;DHT22;29684;47.722;9.388;2023-03-19T07:31:17;10.40;99.90
8662;DHT22;29684;47.722;9.388;2023-03-19T07:34:02;10.40;99.90
8662;DHT22;29684;47.722;9.388;2023-03-19T07:36:46;10.50;99.90
8662;DHT22;29684;47.722;9.388;2023-03-19T07:39:30;10.60;99.90
8662;DHT22;29684;47.722;9.388;2023-03-19T07:42:14;10.80;99.90
8662;DHT22;29684;47.722;9.388;2023-03-19T07:44:58;10.90;99.90
8662;DHT22;29684;47.722;9.388;2023-03-19T07:47:45;11.10;99.90
8662;DHT22;29684;47.722;9.388;2023-03-19T07:50:30;11.10;99.90
8662;DHT22;29684;47.722;9.388;2023-03-19T07:53:14;11.10;99.90
8662;DHT22;29684;47.722;9.388;2023-03-19T07:55:59;12.50;99.90
8662;DHT22;29684;47.722;9.388;2023-03-19T07:58:43;11.30;99.90
8662;DHT22;29684;47.722;9.388;2023-03-19T08:01:27;11.50;99.90
8662;DHT22;29684;47.722;9.388;2023-03-19T08:04:11;11.60;99.90
8662;DHT22;29684;47.722;9.388;2023-03-19T08:06:56;11.50;99.90
8662;DHT22;29684;47.722;9.388;2023-03-19T08:09:40;11.60;99.90
8662;DHT22;29684;47.722;9.388;2023-03-19T08:12:24;11.70;99.90
8662;DHT22;29684;47.722;9.388;2023-03-19T08:15:10;11.80;99.90
8662;DHT22;29684;47.722;9.388;2023-03-19T08:18:02;11.90;99.90
8662;DHT22;29684;47.722;9.388;2023-03-19T08:20:48;11.90;99.90
8662;DHT22;29684;47.722;9.388;2023-03-19T08:23:32;12.10;99.90
8662;DHT22;29684;47.722;9.388;2023-03-19T08:26:16;12.20;99.90
8662;DHT22;29684;47.722;9.388;2023-03-19T08:29:00;12.40;99.90
8662;DHT22;29684;47.722;9.388;2023-03-19T08:31:44;12.50;99.90
8662;DHT22;29684;47.722;9.388;2023-03-19T08:34:29;12.60;99.90
8662;DHT22;29684;47.722;9.388;2023-03-19T08:37:13;12.60;99.90
8662;DHT22;29684;47.722;9.388;2023-03-19T08:39:58;12.80;99.90
8662;DHT22;29684;47.722;9.388;2023-03-19T08:42:42;12.90;99.90
8662;DHT22;29684;47.722;9.388;2023-03-19T08:45:27;13.00;99.90
8662;DHT22;29684;47.722;9.388;2023-03-19T08:48:11;13.20;99.90
8662;DHT22;29684;47.722;9.388;2023-03-19T08:51:00;13.20;99.90
8662;DHT22;29684;47.722;9.388;2023-03-19T08:53:45;13.30;99.90
8662;DHT22;29684;47.722;9.388;2023-03-19T08:56:29;13.40;99.90
8662;DHT22;29684;47.722;9.388;2023-03-19T08:59:13;13.50;99.90
8662;DHT22;29684;47.722;9.388;2023-03-19T09:01:58;13.50;99.90
8662;DHT22;29684;47.722;9.388;2023-03-19T09:04:43;13.40;99.90
8662;DHT22;29684;47.722;9.388;2023-03-19T09:07:27;13.40;99.90
8662;DHT22;29684;47.722;9.388;2023-03-19T09:10:12;13.40;99.90
8662;DHT22;29684;47.722;9.388;2023-03-19T09:12:56;13.30;99.90
8662;DHT22;29684;47.722;9.388;2023-03-19T09:15:40;13.20;99.90
8662;DHT22;29684;47.722;9.388;2023-03-19T09:18:24;13.40;99.90
8662;DHT22;29684;47.722;9.388;2023-03-19T09:21:09;13.50;99.90
8662;DHT22;29684;47.722;9.388;2023-03-19T09:23:53;13.60;99.90
8662;DHT22;29684;47.722;9.388;2023-03-19T09:26:37;13.50;99.90
8662;DHT22;29684;47.722;9.388;2023-03-19T09:29:21;13.80;99.90
8662;DHT22;29684;47.722;9.388;2023-03-19T09:32:06;14.30;99.90
8662;DHT22;29684;47.722;9.388;2023-03-19T09:34:50;14.40;99.90
8662;DHT22;29684;47.722;9.388;2023-03-19T09:37:34;14.70;99.90
8662;DHT22;29684;47.722;9.388;2023-03-19T09:40:25;14.60;99.90
8662;DHT22;29684;47.722;9.388;2023-03-19T09:43:38;14.80;99.90
8662;DHT22;29684;47.722;9.388;2023-03-19T09:46:48;14.80;99.90
8662;DHT22;29684;47.722;9.388;2023-03-19T09:49:43;15.10;99.90
8662;DHT22;29684;47.722;9.388;2023-03-19T09:58:21;15.60;99.90
8662;DHT22;29684;47.722;9.388;2023-03-19T10:01:06;15.60;99.90
8662;DHT22;29684;47.722;9.388;2023-03-19T10:04:06;15.70;99.90
8662;DHT22;29684;47.722;9.388;2023-03-19T10:06:58;15.90;99.90
8662;DHT22;29684;47.722;9.388;2023-03-19T10:16:27;16.10;99.90
8662;DHT22;29684;47.722;9.388;2023-03-19T10:19:15;16.20;99.90
8662;DHT22;29684;47.722;9.388;2023-03-19T10:22:06;16.20;99.90
8662;DHT22;29684;47.722;9.388;2023-03-19T10:24:53;16.10;99.90
8662;DHT22;29684;47.722;9.388;2023-03-19T10:27:39;16.10;99.90
8662;DHT22;29684;47.722;9.388;2023-03-19T10:30:24;16.20;99.90
8662;DHT22;29684;47.722;9.388;2023-03-19T10:33:22;16.30;99.90
8662;DHT22;29684;47.722;9.388;2023-03-19T10:36:09;16.60;99.90
8662;DHT22;29684;47.722;9.388;2023-03-19T10:38:53;16.70;99.90
8662;DHT22;29684;47.722;9.388;2023-03-19T10:41:49;16.40;99.90
8662;DHT22;29684;47.722;9.388;2023-03-19T10:44:41;16.30;99.90
8662;DHT22;29684;47.722;9.388;2023-03-19T10:47:37;16.50;99.90
8662;DHT22;29684;47.722;9.388;2023-03-19T10:59:22;16.90;99.90
8662;DHT22;29684;47.722;9.388;2023-03-19T11:08:05;16.50;99.90
8662;DHT22;29684;47.722;9.388;2023-03-19T11:10:50;16.70;99.90
8662;DHT22;29684;47.722;9.388;2023-03-19T11:13:34;16.70;99.90
8662;DHT22;29684;47.722;9.388;2023-03-19T11:16:19;16.90;99.90
8662;DHT22;29684;47.722;9.388;2023-03-19T11:19:25;16.90;99.90
8662;DHT22;29684;47.722;9.388;2023-03-19T11:22:22;17.20;99.90
8662;DHT22;29684;47.722;9.388;2023-03-19T11:37:10;17.50;99.90
8662;DHT22;29684;47.722;9.388;2023-03-19T11:40:28;17.00;99.90
8662;DHT22;29684;47.722;9.388;2023-03-19T11:46:32;18.10;99.90
8662;DHT22;29684;47.722;9.388;2023-03-19T11:49:53;17.90;99.90
8662;DHT22;29684;47.722;9.388;2023-03-19T11:59:20;18.50;99.90
8662;DHT22;29684;47.722;9.388;2023-03-19T12:28:33;19.50;99.90
8662;DHT22;29684;47.722;9.388;2023-03-19T12:34:34;18.90;99.90
8662;DHT22;29684;47.722;9.388;2023-03-19T12:40:42;18.50;99.90
8662;DHT22;29684;47.722;9.388;2023-03-19T12:43:55;17.90;99.90
8662;DHT22;29684;47.722;9.388;2023-03-19T12:49:56;17.30;99.90
8662;DHT22;29684;47.722;9.388;2023-03-19T12:52:45;17.20;99.90
8662;DHT22;29684;47.722;9.388;2023-03-19T12:55:52;17.30;99.90
8662;DHT22;29684;47.722;9.388;2023-03-19T12:58:52;17.70;99.90
8662;DHT22;29684;47.722;9.388;2023-03-19T13:01:49;17.70;99.90
8662;DHT22;29684;47.722;9.388;2023-03-19T13:04:39;17.40;99.90
8662;DHT22;29684;47.722;9.388;2023-03-19T13:07:35;17.40;99.90
8662;DHT22;29684;47.722;9.388;2023-03-19T13:10:22;17.30;99.90
8662;DHT22;29684;47.722;9.388;2023-03-19T13:19:42;17.30;99.90
8662;DHT22;29684;47.722;9.388;2023-03-19T13:22:31;17.30;99.90
8662;DHT22;29684;47.722;9.388;2023-03-19T13:25:24;17.10;99.90
8662;DHT22;29684;47.722;9.388;2023-03-19T13:28:15;16.70;99.90
8662;DHT22;29684;47.722;9.388;2023-03-19T13:31:16;16.80;99.90
8662;DHT22;29684;47.722;9.388;2023-03-19T13:34:02;16.90;99.90
8662;DHT22;29684;47.722;9.388;2023-03-19T13:37:09;16.50;99.90
8662;DHT22;29684;47.722;9.388;2023-03-19T13:39:54;16.00;99.90
8662;DHT22;29684;47.722;9.388;2023-03-19T13:42:39;16.40;99.90
8662;DHT22;29684;47.722;9.388;2023-03-19T13:45:36;16.40;99.90
8662;DHT22;29684;47.722;9.388;2023-03-19T13:59:46;17.60;99.90
8662;DHT22;29684;47.722;9.388;2023-03-19T14:07:59;18.20;99.90
8662;DHT22;29684;47.722;9.388;2023-03-19T14:10:52;18.30;99.90
8662;DHT22;29684;47.722;9.388;2023-03-19T14:13:42;18.80;99.90
8662;DHT22;29684;47.722;9.388;2023-03-19T14:16:41;18.90;99.90
8662;DHT22;29684;47.722;9.388;2023-03-19T14:19:26;19.30;99.90
8662;DHT22;29684;47.722;9.388;2023-03-19T14:22:54;19.30;99.90
8662;DHT22;29684;47.722;9.388;2023-03-19T14:29:03;19.00;99.90
8662;DHT22;29684;47.722;9.388;2023-03-19T14:31:50;18.40;99.90
8662;DHT22;29684;47.722;9.388;2023-03-19T14:34:38;18.30;99.90
8662;DHT22;29684;47.722;9.388;2023-03-19T14:40:20;17.70;99.90
8662;DHT22;29684;47.722;9.388;2023-03-19T14:43:22;17.60;99.90
8662;DHT22;29684;47.722;9.388;2023-03-19T14:52:24;17.70;99.90
8662;DHT22;29684;47.722;9.388;2023-03-19T14:55:12;18.00;99.90
8662;DHT22;29684;47.722;9.388;2023-03-19T14:57:59;18.00;99.90
8662;DHT22;29684;47.722;9.388;2023-03-19T15:00:45;17.70;99.90
8662;DHT22;29684;47.722;9.388;2023-03-19T15:03:34;17.40;99.90
8662;DHT22;29684;47.722;9.388;2023-03-19T15:06:23;17.50;99.90
8662;DHT22;29684;47.722;9.388;2023-03-19T15:09:18;16.80;99.90
8662;DHT22;29684;47.722;9.388;2023-03-19T15:15:38;16.50;99.90
8662;DHT22;29684;47.722;9.388;2023-03-19T15:18:23;16.40;99.90
8662;DHT22;29684;47.722;9.388;2023-03-19T15:21:09;16.70;99.90
8662;DHT22;29684;47.722;9.388;2023-03-19T15:23:53;16.70;99.90
8662;DHT22;29684;47.722;9.388;2023-03-19T15:26:40;16.20;99.90
8662;DHT22;29684;47.722;9.388;2023-03-19T15:29:32;16.10;99.90
8662;DHT22;29684;47.722;9.388;2023-03-19T15:35:18;15.50;99.90
8662;DHT22;29684;47.722;9.388;2023-03-19T15:38:08;15.20;99.90
8662;DHT22;29684;47.722;9.388;2023-03-19T15:40:53;15.20;99.90
8662;DHT22;29684;47.722;9.388;2023-03-19T15:43:38;14.80;99.90
8662;DHT22;29684;47.722;9.388;2023-03-19T15:46:27;14.50;99.90
8662;DHT22;29684;47.722;9.388;2023-03-19T15:52:05;14.20;99.90
8662;DHT22;29684;47.722;9.388;2023-03-19T15:54:54;14.00;99.90
8662;DHT22;29684;47.722;9.388;2023-03-19T15:57:39;13.80;99.90
8662;DHT22;29684;47.722;9.388;2023-03-19T16:00:24;13.80;99.90
8662;DHT22;29684;47.722;9.388;2023-03-19T16:03:16;13.60;99.90
8662;DHT22;29684;47.722;9.388;2023-03-19T16:06:04;13.30;99.90
8662;DHT22;29684;47.722;9.388;2023-03-19T16:08:51;13.20;99.90
8662;DHT22;29684;47.722;9.388;2023-03-19T16:11:43;12.90;99.90
8662;DHT22;29684;47.722;9.388;2023-03-19T16:14:41;13.00;99.90
8662;DHT22;29684;47.722;9.388;2023-03-19T16:17:33;12.80;99.90
8662;DHT22;29684;47.722;9.388;2023-03-19T16:20:17;12.70;99.90
8662;DHT22;29684;47.722;9.388;2023-03-19T16:23:01;12.60;99.90
8662;DHT22;29684;47.722;9.388;2023-03-19T16:25:46;12.40;99.90
8662;DHT22;29684;47.722;9.388;2023-03-19T16:28:30;12.20;99.90
8662;DHT22;29684;47.722;9.388;2023-03-19T16:31:24;12.00;99.90
8662;DHT22;29684;47.722;9.388;2023-03-19T16:34:36;11.80;99.90
8662;DHT22;29684;47.722;9.388;2023-03-19T16:43:16;11.80;99.90
8662;DHT22;29684;47.722;9.388;2023-03-19T16:46:05;11.90;99.90
8662;DHT22;29684;47.722;9.388;2023-03-19T16:48:51;11.80;99.90
8662;DHT22;29684;47.722;9.388;2023-03-19T16:51:36;11.70;99.90
8662;DHT22;29684;47.722;9.388;2023-03-19T16:54:21;11.80;99.90
8662;DHT22;29684;47.722;9.388;2023-03-19T16:57:10;11.70;99.90
8662;DHT22;29684;47.722;9.388;2023-03-19T16:59:54;11.70;99.90
8662;DHT22;29684;47.722;9.388;2023-03-19T17:02:39;11.80;99.90
8662;DHT22;29684;47.722;9.388;2023-03-19T17:05:25;11.80;99.90
8662;DHT22;29684;47.722;9.388;2023-03-19T17:08:10;11.80;99.90
8662;DHT22;29684;47.722;9.388;2023-03-19T17:10:54;11.80;99.90
8662;DHT22;29684;47.722;9.388;2023-03-19T17:13:39;11.70;99.90
8662;DHT22;29684;47.722;9.388;2023-03-19T17:16:26;11.70;99.90
8662;DHT22;29684;47.722;9.388;2023-03-19T17:19:16;11.50;99.90
8662;DHT22;29684;47.722;9.388;2023-03-19T17:22:01;11.40;99.90
8662;DHT22;29684;47.722;9.388;2023-03-19T17:24:45;11.40;99.90
8662;DHT22;29684;47.722;9.388;2023-03-19T17:27:29;11.20;99.90
8662;DHT22;29684;47.722;9.388;2023-03-19T17:30:15;11.20;99.90
8662;DHT22;29684;47.722;9.388;2023-03-19T17:32:59;11.10;99.90
8662;DHT22;29684;47.722;9.388;2023-03-19T17:35:43;11.00;99.90
8662;DHT22;29684;47.722;9.388;2023-03-19T17:38:31;10.80;99.90
8662;DHT22;29684;47.722;9.388;2023-03-19T17:41:17;10.70;99.90
8662;DHT22;29684;47.722;9.388;2023-03-19T17:44:03;10.40;99.90
8662;DHT22;29684;47.722;9.388;2023-03-19T17:46:50;10.20;99.90
8662;DHT22;29684;47.722;9.388;2023-03-19T17:49:35;10.10;99.90
8662;DHT22;29684;47.722;9.388;2023-03-19T17:52:20;10.00;99.90
8662;DHT22;29684;47.722;9.388;2023-03-19T17:58:03;9.80;99.90
8662;DHT22;29684;47.722;9.388;2023-03-19T18:00:49;9.70;99.90
8662;DHT22;29684;47.722;9.388;2023-03-19T18:03:34;9.70;99.90
8662;DHT22;29684;47.722;9.388;2023-03-19T18:06:22;9.80;99.90
8662;DHT22;29684;47.722;9.388;2023-03-19T18:09:30;9.90;99.90
8662;DHT22;29684;47.722;9.388;2023-03-19T18:12:15;9.90;99.90
8662;DHT22;29684;47.722;9.388;2023-03-19T18:14:59;10.00;99.90
8662;DHT22;29684;47.722;9.388;2023-03-19T18:17:55;10.10;99.90
8662;DHT22;29684;47.722;9.388;2023-03-19T18:20:40;10.10;99.90
8662;DHT22;29684;47.722;9.388;2023-03-19T18:23:24;10.10;99.90
8662;DHT22;29684;47.722;9.388;2023-03-19T18:26:10;10.10;99.90
8662;DHT22;29684;47.722;9.388;2023-03-19T18:28:57;9.90;99.90
8662;DHT22;29684;47.722;9.388;2023-03-19T18:31:43;10.10;99.90
8662;DHT22;29684;47.722;9.388;2023-03-19T18:34:28;10.00;99.90
8662;DHT22;29684;47.722;9.388;2023-03-19T18:37:16;9.80;99.90
8662;DHT22;29684;47.722;9.388;2023-03-19T18:40:02;9.80;99.90
8662;DHT22;29684;47.722;9.388;2023-03-19T18:42:48;9.70;99.90
8662;DHT22;29684;47.722;9.388;2023-03-19T18:45:32;9.50;99.90
8662;DHT22;29684;47.722;9.388;2023-03-19T18:51:07;9.40;99.90
8662;DHT22;29684;47.722;9.388;2023-03-19T18:53:53;9.70;99.90
8662;DHT22;29684;47.722;9.388;2023-03-19T18:56:37;9.80;99.90
8662;DHT22;29684;47.722;9.388;2023-03-19T18:59:26;9.60;99.90
8662;DHT22;29684;47.722;9.388;2023-03-19T19:05:16;9.60;99.90
8662;DHT22;29684;47.722;9.388;2023-03-19T19:08:01;9.50;99.90
8662;DHT22;29684;47.722;9.388;2023-03-19T19:10:49;9.50;99.90
8662;DHT22;29684;47.722;9.388;2023-03-19T19:13:34;9.60;99.90
8662;DHT22;29684;47.722;9.388;2023-03-19T19:16:20;9.60;99.90
8662;DHT22;29684;47.722;9.388;2023-03-19T19:19:16;9.60;99.90
8662;DHT22;29684;47.722;9.388;2023-03-19T19:22:01;9.60;99.90
8662;DHT22;29684;47.722;9.388;2023-03-19T19:24:46;9.60;99.90
8662;DHT22;29684;47.722;9.388;2023-03-19T19:27:30;9.70;99.90
8662;DHT22;29684;47.722;9.388;2023-03-19T19:30:19;9.70;99.90
8662;DHT22;29684;47.722;9.388;2023-03-19T19:33:18;9.70;99.90
8662;DHT22;29684;47.722;9.388;2023-03-19T19:36:03;9.70;99.90
8662;DHT22;29684;47.722;9.388;2023-03-19T19:38:47;9.80;99.90
8662;DHT22;29684;47.722;9.388;2023-03-19T19:41:32;9.70;99.90
8662;DHT22;29684;47.722;9.388;2023-03-19T19:44:18;9.70;99.90
8662;DHT22;29684;47.722;9.388;2023-03-19T19:47:13;9.60;99.90
8662;DHT22;29684;47.722;9.388;2023-03-19T19:49:57;9.70;99.90
8662;DHT22;29684;47.722;9.388;2023-03-19T19:52:41;9.70;99.90
8662;DHT22;29684;47.722;9.388;2023-03-19T19:55:26;9.70;99.90
8662;DHT22;29684;47.722;9.388;2023-03-19T20:01:08;9.60;99.90
8662;DHT22;29684;47.722;9.388;2023-03-19T20:03:56;9.50;99.90
8662;DHT22;29684;47.722;9.388;2023-03-19T20:06:41;9.50;99.90
8662;DHT22;29684;47.722;9.388;2023-03-19T20:09:25;9.50;99.90
8662;DHT22;29684;47.722;9.388;2023-03-19T20:12:21;9.50;99.90
8662;DHT22;29684;47.722;9.388;2023-03-19T20:15:17;9.50;99.90
8662;DHT22;29684;47.722;9.388;2023-03-19T20:18:03;9.50;99.90
8662;DHT22;29684;47.722;9.388;2023-03-19T20:20:48;10.40;99.90
8662;DHT22;29684;47.722;9.388;2023-03-19T20:23:32;9.50;99.90
8662;DHT22;29684;47.722;9.388;2023-03-19T20:26:20;9.60;99.90
8662;DHT22;29684;47.722;9.388;2023-03-19T20:29:05;10.60;99.90